Historique des mesures à Cassis (13260), France
Quotidien Résumé Juin 20, 2017 Unités:  Métrique    US   Métrique/US
« Précédent (Jour)
Suivant (Jour) »
Quotidien Hebdomadaire Mensuel Annuel Période au choix
  Maximum: Minimum: Moyenne:
Température: TemperatureC °C 21.2 °C 25.3 °C
Point de rosée: DewpointC °C 12.3 °C 16.8 °C
Humidité: Humidity % 52 % 56 %
Vitesse du vent: 0 km/h 0 km/h 3.9 km/h
Rafales: 0 km/h - -
Vent:- - SE
Pression: PressurehPa hPa 1013.4 hPa -
Précipitations: 0.0 mm    
Historical Graphs
 
 
Mesures pour : Juin 20, 2017
Heure Temperature Point de rosée Pression Vent Vitesse du vent Rafales Humidité Pluie (par heure) Conditions
TemperatureC °C DewpointC °C PressurehPa hPa Calm     Humidity % HourlyPrecipMM mm SoftwareType W/m2
00:11 23.3 °C 14.8 °C 1016.5 hPa NNE 2.3 km/h 2.3 km/h 59 % 0.0 mm open2300-1.11 W/m2
01:10 22.8 °C 13.5 °C 1016.5 hPa Calm   2.9 km/h 56 % 0.0 mm open2300-1.11 W/m2
02:10 22.2 °C 14.1 °C 1016.1 hPa NNE 2.3 km/h 2.9 km/h 60 % 0.0 mm open2300-1.11 W/m2
03:10 21.9 °C 14.3 °C 1015.8 hPa NE 2.9 km/h 5.6 km/h 62 % 0.0 mm open2300-1.11 W/m2
04:10 21.6 °C 13.3 °C 1015.5 hPa NW 5.6 km/h 5.6 km/h 59 % 0.0 mm open2300-1.11 W/m2
05:10 21.9 °C 12.7 °C 1015.5 hPa Calm   4.7 km/h 56 % 0.0 mm open2300-1.11 W/m2
06:10 21.2 °C 12.3 °C 1015.1 hPa NNE 2.3 km/h 2.3 km/h 57 % 0.0 mm open2300-1.11 W/m2
07:10 21.3 °C 13.0 °C 1015.8 hPa Calm     59 % 0.0 mm open2300-1.11 W/m2
08:11 24.9 °C 16.1 °C 1015.5 hPa Calm   2.3 km/h 58 % 0.0 mm open2300-1.11 W/m2
09:10 24.6 °C 16.8 °C 1015.8 hPa Calm   9.3 km/h 62 % 0.0 mm open2300-1.11 W/m2
10:10 27.3 °C 18.9 °C 1015.8 hPa SSE 7.6 km/h 7.6 km/h 60 % 0.0 mm open2300-1.11 W/m2
11:10 30.4 °C 19.4 °C 1015.8 hPa SE 12.2 km/h 15 km/h 52 % 0.0 mm open2300-1.11 W/m2
12:10 31.3 °C 20.9 °C 1016.1 hPa SSW 3.4 km/h 6.4 km/h 54 % 0.0 mm open2300-1.11 W/m2
13:10 31.6 °C 21.4 °C 1015.8 hPa SSE 6.4 km/h 14.5 km/h 55 % 0.0 mm open2300-1.11 W/m2
14:10 31.2 °C 21.1 °C 1015.5 hPa South 6.4 km/h 10.9 km/h 55 % 0.0 mm open2300-1.11 W/m2
15:10 31.2 °C 20.5 °C 1015.1 hPa ESE 9.3 km/h 9.3 km/h 53 % 0.0 mm open2300-1.11 W/m2
16:10 31.1 °C 21.0 °C 1014.4 hPa SSE 12.2 km/h 13.2 km/h 55 % 0.0 mm open2300-1.11 W/m2
17:10 29.9 °C 20.2 °C 1014.1 hPa SSE 7.6 km/h 7.6 km/h 56 % 0.0 mm open2300-1.11 W/m2
18:10 29.6 °C 19.0 °C 1013.4 hPa SSE 3.4 km/h 3.4 km/h 53 % 0.0 mm open2300-1.11 W/m2
19:10 28.6 °C 19.2 °C 1013.4 hPa SSE 8 km/h 8 km/h 57 % 0.0 mm open2300-1.11 W/m2
20:10 27.6 °C 19.6 °C 1013.8 hPa WSW 4.2 km/h 4.2 km/h 62 % 0.0 mm open2300-1.11 W/m2
21:10 26.4 °C 19.5 °C 1013.8 hPa Calm   2.3 km/h 66 % 0.0 mm open2300-1.11 W/m2
22:10 25.3 °C 19.5 °C 1013.8 hPa Calm     70 % 0.0 mm open2300-1.11 W/m2
23:10 24.3 °C 18.9 °C 1013.8 hPa Calm     72 % 0.0 mm open2300-1.11 W/m2
Observations météo à CASSIS
WU-History script by Weather Underground - 1 mb